Time;durP1;ratioP1;P1;durP2;ratioP2;P2;SDS_P1;SDS_P2;PMS_P1;PMS_P2;Temp;Humidity;BMP_temperature;BMP_pressure;BME280_temperature;BME280_humidity;BME280_pressure;Samples;Min_cycle;Max_cycle;Signal;HPM_P1;HPM_P2
2022/12/19 00:01:52;;;;;;;29.87;18.37;;;1.60;1.00;;;;;;5006264;28;20312;-66
2022/12/19 00:04:20;;;;;;;31.50;18.00;;;1.50;1.00;;;;;;5016153;28;20322;-65
2022/12/19 00:06:47;;;;;;;33.93;19.07;;;1.50;1.00;;;;;;5015702;28;20199;-65
2022/12/19 00:09:13;;;;;;;32.47;17.17;;;1.40;1.00;;;;;;5016437;28;20192;-65
2022/12/19 00:11:41;;;;;;;31.00;17.97;;;1.50;1.00;;;;;;5005253;28;20220;-66
2022/12/19 00:14:11;;;;;;;40.33;21.23;;;1.40;1.00;;;;;;5030263;28;20206;-66
2022/12/19 00:16:38;;;;;;;36.87;21.80;;;1.40;1.00;;;;;;5028934;28;20195;-66
2022/12/19 00:19:06;;;;;;;37.63;20.27;;;1.40;1.00;;;;;;4989889;28;20262;-66
2022/12/19 00:21:33;;;;;;;39.30;21.17;;;1.40;1.00;;;;;;5027751;28;20235;-66
2022/12/19 00:24:03;;;;;;;36.70;18.57;;;1.40;1.00;;;;;;5014572;28;20746;-66
2022/12/19 00:26:47;;;;;;;34.20;19.13;;;1.30;20.00;;;;;;5016012;28;20215;-66
2022/12/19 00:29:14;;;;;;;35.93;18.83;;;1.30;1.00;;;;;;5018178;28;20276;-65
2022/12/19 00:31:42;;;;;;;36.07;18.13;;;1.30;1.00;;;;;;4985780;28;20212;-69
2022/12/19 00:34:09;;;;;;;30.50;17.60;;;1.40;57.40;;;;;;5018994;28;20579;-65
2022/12/19 00:36:38;;;;;;;31.50;18.10;;;1.50;68.40;;;;;;5016614;28;20197;-65
2022/12/19 00:39:06;;;;;;;34.47;18.57;;;1.50;36.50;;;;;;5018367;28;20196;-65
2022/12/19 00:41:36;;;;;;;35.63;19.70;;;1.60;8.10;;;;;;5017975;28;20192;-65
2022/12/19 00:44:05;;;;;;;39.37;19.17;;;1.50;1.00;;;;;;5015260;28;20576;-65
2022/12/19 00:46:33;;;;;;;35.23;18.10;;;1.50;35.30;;;;;;5030374;28;20291;-64
2022/12/19 00:49:01;;;;;;;35.50;18.07;;;1.50;20.00;;;;;;4982801;28;20204;-65
2022/12/19 00:51:31;;;;;;;37.73;19.30;;;1.60;1.00;;;;;;5017327;28;20718;-64
2022/12/19 00:53:58;;;;;;;40.97;20.90;;;1.50;1.00;;;;;;5032421;28;20682;-65
2022/12/19 00:56:33;;;;;;;34.90;19.43;;;1.60;1.00;;;;;;5030937;28;20634;-65
2022/12/19 00:59:06;;;;;;;38.97;19.50;;;1.50;1.00;;;;;;5015475;28;20206;-65
2022/12/19 01:01:35;;;;;;;43.27;19.90;;;1.50;1.00;;;;;;5030447;28;20228;-66
2022/12/19 01:04:06;;;;;;;35.93;19.40;;;1.50;1.00;;;;;;5017470;28;20243;-65
2022/12/19 01:06:53;;;;;;;35.07;19.37;;;1.60;1.00;;;;;;5032887;28;20684;-65
2022/12/19 01:09:31;;;;;;;37.07;20.27;;;1.60;1.00;;;;;;5017894;28;20196;-65
2022/12/19 01:14:44;;;;;;;41.97;21.23;;;1.60;1.00;;;;;;5033734;28;20515;-66
2022/12/19 01:17:11;;;;;;;41.23;20.77;;;1.50;1.00;;;;;;5017043;28;20188;-66
2022/12/19 01:19:38;;;;;;;38.87;20.70;;;1.60;1.80;;;;;;5014503;28;20197;-71
2022/12/19 01:22:11;;;;;;;37.03;19.73;;;1.60;1.00;;;;;;5015987;28;20197;-68
2022/12/19 01:24:39;;;;;;;40.57;21.07;;;1.70;1.00;;;;;;5013188;28;20836;-65
2022/12/19 01:27:06;;;;;;;39.17;20.33;;;1.70;1.00;;;;;;5014323;28;20216;-65
2022/12/19 01:29:33;;;;;;;38.20;20.70;;;1.60;1.00;;;;;;4999693;28;20207;-65
2022/12/19 01:32:17;;;;;;;0.40;0.40;;;1.70;1.00;;;;;;5018423;28;20207;-65
2022/12/19 01:34:44;;;;;;;36.00;19.23;;;1.80;5.70;;;;;;5016828;28;20231;-65
2022/12/19 01:37:11;;;;;;;38.57;19.97;;;1.70;18.20;;;;;;5003971;28;20649;-66
2022/12/19 01:39:41;;;;;;;40.20;20.60;;;1.70;85.50;;;;;;5017261;28;20188;-65
2022/12/19 01:42:16;;;;;;;40.67;21.73;;;1.70;99.90;;;;;;5014154;28;20215;-66
2022/12/19 01:45:07;;;;;;;42.17;20.63;;;1.70;99.90;;;;;;5014511;28;20694;-66
2022/12/19 01:47:54;;;;;;;36.10;20.07;;;1.80;99.90;;;;;;5016388;28;20214;-66
2022/12/19 01:50:40;;;;;;;37.53;21.03;;;1.70;99.90;;;;;;5014520;28;20204;-66
2022/12/19 01:53:26;;;;;;;37.13;19.83;;;1.80;99.90;;;;;;5012378;28;20199;-66
2022/12/19 01:55:54;;;;;;;37.97;20.00;;;1.90;99.90;;;;;;5006014;28;20196;-66
2022/12/19 01:58:22;;;;;;;46.67;20.93;;;2.00;99.90;;;;;;5003887;28;20672;-65
2022/12/19 02:00:50;;;;;;;37.53;20.53;;;2.00;99.90;;;;;;5012645;28;20212;-60
2022/12/19 02:03:23;;;;;;;39.37;20.70;;;2.00;99.90;;;;;;5018316;22;20747;-64
2022/12/19 02:05:51;;;;;;;39.33;20.37;;;2.10;99.90;;;;;;4994558;28;20204;-64
2022/12/19 02:08:19;;;;;;;40.23;21.90;;;2.00;99.90;;;;;;4987558;28;20208;-64
2022/12/19 02:10:46;;;;;;;33.47;20.07;;;2.00;99.90;;;;;;4998316;28;20602;-63
2022/12/19 02:13:14;;;;;;;44.33;21.27;;;2.10;99.90;;;;;;4986725;28;20312;-63
2022/12/19 02:15:58;;;;;;;40.87;20.40;;;2.20;99.90;;;;;;4995611;28;20677;-63
2022/12/19 02:18:40;;;;;;;40.47;20.97;;;2.20;99.90;;;;;;4980329;28;20193;-63
2022/12/19 02:21:50;;;;;;;40.23;21.17;;;2.30;99.90;;;;;;4980425;28;20248;-62
2022/12/19 02:24:46;;;;;;;47.63;21.10;;;2.30;99.90;;;;;;4979172;28;20693;-62
2022/12/19 02:27:36;;;;;;;36.67;20.03;;;2.40;99.90;;;;;;4997549;28;20210;-62
2022/12/19 02:30:44;;;;;;;34.60;19.40;;;2.40;99.90;;;;;;4954153;28;20284;-62
2022/12/19 02:33:27;;;;;;;34.27;19.73;;;2.50;99.90;;;;;;4997217;28;20224;-65
2022/12/19 02:36:07;;;;;;;40.43;20.50;;;2.70;78.30;;;;;;4993090;28;20204;-64
2022/12/19 02:38:45;;;;;;;39.87;20.43;;;2.80;61.70;;;;;;4995571;28;20362;-63
2022/12/19 02:41:22;;;;;;;35.13;18.53;;;2.90;48.10;;;;;;4981338;28;20426;-67
2022/12/19 02:43:54;;;;;;;36.93;20.57;;;2.90;46.60;;;;;;4970358;28;20876;-64
2022/12/19 02:46:27;;;;;;;31.83;17.53;;;2.80;47.20;;;;;;4980211;28;20724;-65
2022/12/19 02:48:56;;;;;;;34.97;19.13;;;2.80;43.50;;;;;;4995446;28;20193;-65
2022/12/19 02:51:22;;;;;;;28.67;18.13;;;2.80;41.40;;;;;;4986259;28;20239;-66
2022/12/19 02:53:50;;;;;;;34.03;17.70;;;2.70;44.90;;;;;;4981783;28;20221;-63
2022/12/19 02:56:23;;;;;;;34.93;18.57;;;2.80;39.10;;;;;;4979001;28;20213;-65
2022/12/19 02:59:11;;;;;;;33.57;17.77;;;2.70;41.80;;;;;;4996278;28;20256;-64
2022/12/19 03:01:59;;;;;;;34.90;17.60;;;2.80;34.80;;;;;;4971481;28;20487;-63
2022/12/19 03:04:52;;;;;;;33.83;17.73;;;2.90;13.60;;;;;;4998248;28;20189;-63
2022/12/19 03:07:39;;;;;;;30.57;17.40;;;3.00;1.00;;;;;;4972555;28;20202;-65
2022/12/19 03:10:43;;;;;;;27.83;17.60;;;3.00;1.00;;;;;;4997048;28;20197;-64
2022/12/19 03:13:22;;;;;;;30.67;17.23;;;2.90;1.00;;;;;;4986691;28;20208;-64
2022/12/19 03:15:50;;;;;;;30.70;17.70;;;2.90;1.00;;;;;;4981571;28;20216;-65
2022/12/19 03:18:18;;;;;;;34.60;18.67;;;2.90;1.00;;;;;;4987507;28;20653;-65
2022/12/19 03:21:05;;;;;;;31.40;18.47;;;2.90;1.00;;;;;;4997381;28;20291;-65
2022/12/19 03:23:33;;;;;;;29.30;17.53;;;2.90;1.00;;;;;;4978333;28;20202;-64
2022/12/19 03:26:05;;;;;;;34.30;18.03;;;2.90;1.00;;;;;;4996954;28;20682;-62
2022/12/19 03:28:51;;;;;;;30.50;17.53;;;3.00;1.00;;;;;;4980132;28;20894;-63
2022/12/19 03:31:21;;;;;;;32.83;18.07;;;3.10;1.00;;;;;;4998249;28;20196;-63
2022/12/19 03:33:54;;;;;;;27.60;17.07;;;3.10;1.00;;;;;;4997393;28;20209;-64
2022/12/19 03:36:27;;;;;;;31.87;17.93;;;3.20;1.00;;;;;;4985770;28;20206;-63
2022/12/19 03:38:56;;;;;;;33.33;16.23;;;3.20;1.00;;;;;;4996170;28;20273;-64
2022/12/19 03:44:12;;;;;;;29.10;16.17;;;3.30;1.00;;;;;;4997865;28;20204;-65
2022/12/19 03:46:44;;;;;;;26.77;15.70;;;3.40;1.00;;;;;;4997980;28;20201;-64
2022/12/19 03:49:12;;;;;;;29.60;16.27;;;3.50;1.00;;;;;;4998839;28;20240;-64
2022/12/19 03:51:54;;;;;;;25.60;15.60;;;3.40;1.00;;;;;;4996272;28;20228;-65
2022/12/19 03:54:35;;;;;;;26.50;16.13;;;3.40;1.00;;;;;;4996417;28;20220;-65
2022/12/19 03:57:13;;;;;;;27.57;16.43;;;3.60;1.00;;;;;;4978461;28;20197;-64
2022/12/19 03:59:52;;;;;;;24.47;14.90;;;3.50;1.00;;;;;;4997777;28;20238;-65
2022/12/19 04:02:20;;;;;;;28.53;16.33;;;3.60;1.00;;;;;;4985640;28;20750;-63
2022/12/19 04:04:56;;;;;;;28.03;15.70;;;3.60;1.00;;;;;;5002149;28;20204;-64
2022/12/19 04:07:23;;;;;;;25.90;16.20;;;3.60;1.00;;;;;;5002630;28;20193;-67
2022/12/19 04:09:54;;;;;;;28.47;15.63;;;3.70;1.00;;;;;;5000374;28;20201;-64
2022/12/19 04:12:27;;;;;;;27.03;15.53;;;3.70;1.00;;;;;;4995694;28;20271;-65
2022/12/19 04:14:54;;;;;;;30.00;16.50;;;3.80;1.00;;;;;;4985941;28;20220;-63
2022/12/19 04:17:30;;;;;;;31.73;17.77;;;3.90;1.00;;;;;;5005687;28;20200;-67
2022/12/19 04:20:07;;;;;;;26.00;15.93;;;3.90;1.00;;;;;;5000854;28;20712;-63
2022/12/19 04:22:45;;;;;;;26.13;15.47;;;3.90;1.00;;;;;;4983711;28;20209;-63
2022/12/19 04:25:17;;;;;;;30.30;16.67;;;3.80;1.00;;;;;;4981842;28;20284;-64
2022/12/19 04:27:55;;;;;;;28.10;16.63;;;3.70;1.00;;;;;;5006576;28;20284;-63
2022/12/19 04:30:22;;;;;;;25.90;16.27;;;3.90;1.00;;;;;;4994025;28;20574;-64
2022/12/19 04:32:50;;;;;;;26.60;17.33;;;3.90;1.00;;;;;;5001781;28;20204;-63
2022/12/19 04:35:17;;;;;;;27.23;15.57;;;4.00;1.00;;;;;;5003690;28;20205;-66
2022/12/19 04:37:44;;;;;;;25.97;16.67;;;3.90;1.00;;;;;;5007694;28;20205;-64
2022/12/19 04:40:11;;;;;;;27.83;17.23;;;3.90;1.00;;;;;;4987282;28;20304;-65
2022/12/19 04:42:38;;;;;;;26.30;16.57;;;4.10;1.00;;;;;;5006189;28;20198;-64
2022/12/19 04:45:06;;;;;;;27.30;16.53;;;4.00;1.00;;;;;;4988261;28;20189;-64
2022/12/19 04:47:33;;;;;;;28.50;17.13;;;4.00;1.00;;;;;;5004474;28;20287;-64
2022/12/19 04:50:03;;;;;;;31.13;17.70;;;4.00;1.00;;;;;;5002802;28;20279;-65
2022/12/19 04:52:30;;;;;;;34.50;18.30;;;3.90;1.00;;;;;;4987275;28;20197;-64
2022/12/19 04:54:57;;;;;;;29.33;17.20;;;3.90;1.00;;;;;;5004214;28;20716;-64
2022/12/19 04:57:24;;;;;;;36.40;18.07;;;3.90;23.50;;;;;;5002959;28;20665;-64
2022/12/19 04:59:51;;;;;;;30.87;17.43;;;3.90;7.10;;;;;;4999235;28;20195;-64
2022/12/19 05:02:18;;;;;;;32.17;18.47;;;4.00;1.00;;;;;;4993012;28;20316;-65
2022/12/19 05:04:45;;;;;;;25.80;16.90;;;3.90;1.00;;;;;;4989387;28;20667;-65
2022/12/19 05:07:13;;;;;;;33.03;18.93;;;4.10;4.70;;;;;;5000502;28;20707;-65
2022/12/19 05:09:40;;;;;;;37.00;20.10;;;3.90;15.70;;;;;;5004249;28;20196;-64
2022/12/19 05:12:09;;;;;;;37.97;18.93;;;3.90;47.40;;;;;;4999173;28;20525;-63
2022/12/19 05:14:35;;;;;;;35.33;19.27;;;3.90;37.50;;;;;;5000960;28;20204;-64
2022/12/19 05:17:02;;;;;;;30.53;18.77;;;4.00;23.80;;;;;;5000239;28;20300;-64
2022/12/19 05:19:29;;;;;;;35.77;19.27;;;4.00;24.60;;;;;;5004165;28;20200;-64
2022/12/19 05:21:57;;;;;;;35.47;19.63;;;4.10;21.80;;;;;;4999444;28;20402;-64
2022/12/19 05:24:24;;;;;;;35.03;19.03;;;4.10;30.50;;;;;;4967899;28;20661;-66
2022/12/19 05:26:51;;;;;;;39.50;19.13;;;4.10;49.00;;;;;;5000102;28;20210;-65
2022/12/19 05:29:18;;;;;;;32.00;18.80;;;4.10;84.40;;;;;;4998556;28;20197;-64
2022/12/19 05:31:45;;;;;;;33.50;20.53;;;4.10;99.90;;;;;;5000330;28;20231;-64
2022/12/19 05:34:12;;;;;;;0.40;0.40;;;4.10;99.90;;;;;;4999786;28;20201;-63
2022/12/19 05:36:39;;;;;;;34.37;18.77;;;4.10;99.90;;;;;;4988044;28;20397;-64
2022/12/19 05:39:06;;;;;;;36.00;19.97;;;4.10;99.90;;;;;;4995589;28;20236;-67
2022/12/19 05:41:33;;;;;;;16.73;9.53;;;4.10;99.90;;;;;;4995410;28;20209;-66
2022/12/19 05:44:00;;;;;;;32.83;19.30;;;4.10;99.90;;;;;;4980489;28;20604;-64
2022/12/19 05:46:27;;;;;;;36.23;19.77;;;4.20;99.90;;;;;;4983463;28;20233;-63
2022/12/19 05:48:54;;;;;;;34.93;19.37;;;4.10;99.90;;;;;;4981543;28;20264;-63
2022/12/19 05:51:22;;;;;;;36.43;21.20;;;4.20;99.90;;;;;;4987526;28;20279;-64
2022/12/19 05:53:49;;;;;;;38.37;20.17;;;4.20;99.90;;;;;;4989891;28;20754;-63
2022/12/19 05:56:18;;;;;;;36.70;19.77;;;4.20;99.90;;;;;;4996287;28;20458;-63
2022/12/19 05:58:46;;;;;;;33.57;19.33;;;4.20;1.00;;;;;;4998322;28;20200;-64
2022/12/19 06:01:20;;;;;;;34.77;19.70;;;4.20;1.00;;;;;;4979985;28;20280;-62
2022/12/19 06:03:48;;;;;;;37.87;20.60;;;4.20;1.00;;;;;;4997290;28;20632;-63
2022/12/19 06:06:17;;;;;;;32.77;19.00;;;4.30;1.00;;;;;;4978841;28;20626;-63
2022/12/19 06:08:44;;;;;;;33.43;19.47;;;4.30;1.00;;;;;;4997176;28;20216;-63
2022/12/19 06:11:12;;;;;;;40.00;20.30;;;4.30;1.00;;;;;;4999155;28;20687;-63
2022/12/19 06:13:40;;;;;;;34.13;19.43;;;4.30;1.00;;;;;;4998752;28;20640;-64
2022/12/19 06:16:12;;;;;;;0.40;0.40;;;4.30;1.00;;;;;;4997909;28;20662;-63
2022/12/19 06:18:40;;;;;;;0.40;0.40;;;4.30;1.00;;;;;;4989664;28;20192;-64
2022/12/19 06:21:16;;;;;;;0.40;0.40;;;4.30;1.00;;;;;;4990707;28;20407;-63
2022/12/19 06:23:44;;;;;;;0.40;0.40;;;4.40;1.00;;;;;;4993969;28;20830;-63
2022/12/19 06:26:13;;;;;;;0.40;0.40;;;4.40;1.00;;;;;;4997520;28;20197;-64
2022/12/19 06:28:50;;;;;;;0.40;0.40;;;4.40;1.00;;;;;;4998830;28;20625;-65
2022/12/19 06:31:19;;;;;;;0.40;0.40;;;4.60;1.00;;;;;;5000200;28;20525;-64
2022/12/19 06:33:46;;;;;;;0.40;0.40;;;4.80;1.00;;;;;;4973937;28;20692;-64
2022/12/19 06:36:15;;;;;;;0.40;0.40;;;4.70;1.00;;;;;;4990750;28;20677;-64
2022/12/19 06:38:42;;;;;;;0.40;0.40;;;4.70;1.00;;;;;;4982987;28;20240;-64
2022/12/19 06:43:59;;;;;;;0.40;0.40;;;4.60;1.00;;;;;;4980664;28;20200;-64
2022/12/19 06:46:27;;;;;;;0.40;0.40;;;4.50;1.00;;;;;;4998548;28;20301;-63
2022/12/19 06:48:53;;;;;;;0.40;0.40;;;4.50;1.00;;;;;;5001463;28;20228;-66
2022/12/19 06:51:21;;;;;;;0.40;0.40;;;4.50;1.00;;;;;;4988775;28;20200;-64
2022/12/19 06:53:48;;;;;;;0.40;0.40;;;4.50;1.00;;;;;;4999723;28;20217;-64
2022/12/19 06:56:19;;;;;;;0.40;0.40;;;4.50;1.00;;;;;;4992468;28;20193;-63
2022/12/19 06:58:46;;;;;;;0.40;0.40;;;4.60;1.00;;;;;;4998808;28;20732;-63
2022/12/19 07:01:19;;;;;;;0.40;0.40;;;4.50;1.00;;;;;;4984432;28;20534;-63
2022/12/19 07:03:47;;;;;;;0.40;0.40;;;4.70;1.00;;;;;;4995970;28;20669;-63
2022/12/19 07:06:15;;;;;;;0.40;0.40;;;4.70;1.00;;;;;;4995317;28;20249;-64
2022/12/19 07:08:42;;;;;;;0.40;0.40;;;4.60;1.00;;;;;;4990202;28;20664;-64
2022/12/19 07:11:09;;;;;;;0.40;0.40;;;4.60;1.00;;;;;;4998940;28;20294;-63
2022/12/19 07:13:36;;;;;;;0.40;0.40;;;4.70;1.00;;;;;;4981939;28;20248;-63
2022/12/19 07:16:04;;;;;;;0.40;0.40;;;4.70;1.00;;;;;;4997466;28;20277;-63
2022/12/19 07:18:35;;;;;;;0.40;0.40;;;4.60;12.90;;;;;;4980475;28;20541;-63
2022/12/19 07:21:05;;;;;;;0.40;0.40;;;4.80;99.90;;;;;;4996813;28;20186;-63
2022/12/19 07:23:42;;;;;;;0.40;0.40;;;4.90;99.90;;;;;;4986087;28;20205;-64
2022/12/19 07:26:17;;;;;;;0.40;0.40;;;5.00;99.90;;;;;;4973750;28;20193;-64
2022/12/19 07:28:44;;;;;;;0.40;0.40;;;5.00;99.90;;;;;;4986990;28;20701;-64
2022/12/19 07:31:11;;;;;;;0.40;0.40;;;5.00;99.90;;;;;;4986579;28;20193;-65
2022/12/19 07:33:38;;;;;;;0.40;0.40;;;5.00;99.90;;;;;;4988810;28;20717;-70
2022/12/19 07:36:05;;;;;;;0.40;0.40;;;5.10;1.00;;;;;;5004216;28;20280;-63
2022/12/19 07:38:35;;;;;;;0.40;0.40;;;5.10;1.00;;;;;;4998491;28;20690;-63
2022/12/19 07:41:02;;;;;;;0.40;0.40;;;5.20;99.90;;;;;;4994811;28;20201;-66
2022/12/19 07:43:29;;;;;;;0.40;0.40;;;5.10;1.00;;;;;;4965048;28;20189;-63
2022/12/19 07:45:57;;;;;;;0.40;0.40;;;5.10;1.00;;;;;;4980014;28;20288;-63
2022/12/19 07:48:24;;;;;;;0.40;0.40;;;5.20;1.00;;;;;;4998073;28;20190;-69
2022/12/19 07:50:51;;;;;;;0.47;0.47;;;5.20;99.90;;;;;;4981936;28;20256;-69
2022/12/19 07:53:27;;;;;;;0.40;0.40;;;5.20;99.90;;;;;;4997357;28;20547;-63
2022/12/19 07:55:57;;;;;;;0.40;0.40;;;5.30;99.90;;;;;;4999487;28;20258;-63
2022/12/19 07:58:24;;;;;;;0.40;0.40;;;5.30;99.90;;;;;;4998977;28;20761;-64
2022/12/19 08:00:59;;;;;;;0.40;0.40;;;5.40;99.90;;;;;;4979447;28;20205;-66
2022/12/19 08:03:29;;;;;;;0.30;0.30;;;5.60;99.90;;;;;;4961460;28;20316;-63
2022/12/19 08:06:05;;;;;;;0.40;0.40;;;5.90;99.90;;;;;;4978505;28;20306;-63
2022/12/19 08:08:33;;;;;;;0.40;0.40;;;6.00;1.00;;;;;;4961276;28;20639;-63
2022/12/19 08:11:10;;;;;;;0.40;0.40;;;6.20;99.90;;;;;;4976311;28;20288;-65
2022/12/19 08:13:38;;;;;;;0.30;0.30;;;6.30;1.00;;;;;;4978325;28;20259;-64
2022/12/19 08:16:13;;;;;;;0.30;0.30;;;6.50;1.00;;;;;;4978706;28;20201;-67
2022/12/19 08:18:40;;;;;;;0.37;0.37;;;6.60;1.00;;;;;;4961513;28;20210;-65
2022/12/19 08:21:08;;;;;;;0.40;0.40;;;6.60;1.00;;;;;;4973821;28;20202;-65
2022/12/19 08:23:35;;;;;;;0.40;0.40;;;6.70;99.90;;;;;;4981347;28;20288;-65
2022/12/19 08:26:05;;;;;;;0.40;0.40;;;6.80;99.90;;;;;;4978532;28;20717;-65
2022/12/19 08:28:33;;;;;;;0.40;0.40;;;6.80;99.90;;;;;;4978133;28;21240;-65
2022/12/19 08:31:07;;;;;;;0.40;0.40;;;6.80;99.90;;;;;;4961881;28;20325;-66
2022/12/19 08:33:35;;;;;;;0.40;0.40;;;6.80;1.00;;;;;;4978380;28;20201;-65
2022/12/19 08:36:07;;;;;;;0.40;0.40;;;6.80;99.90;;;;;;4973357;28;20297;-66
2022/12/19 08:38:34;;;;;;;0.40;0.40;;;6.90;99.90;;;;;;4960560;28;20182;-67
2022/12/19 08:41:01;;;;;;;0.40;0.40;;;6.90;99.90;;;;;;4967187;28;20218;-66
2022/12/19 08:43:29;;;;;;;0.40;0.40;;;7.00;99.90;;;;;;4979844;28;20229;-66
2022/12/19 08:45:57;;;;;;;0.40;0.40;;;7.00;99.90;;;;;;4950498;28;20237;-66
2022/12/19 08:48:24;;;;;;;0.40;0.40;;;7.10;99.90;;;;;;4956822;28;20245;-66
2022/12/19 08:50:53;;;;;;;0.40;0.40;;;7.20;99.90;;;;;;4949590;28;20301;-66
2022/12/19 08:53:20;;;;;;;0.40;0.40;;;7.20;99.90;;;;;;4964426;28;20277;-67
2022/12/19 08:55:59;;;;;;;0.40;0.40;;;7.20;99.90;;;;;;4983297;28;22747;-65
2022/12/19 08:58:27;;;;;;;0.40;0.40;;;7.30;99.90;;;;;;4981949;28;20273;-66
2022/12/19 09:01:03;;;;;;;0.30;0.30;;;7.30;99.90;;;;;;4980763;28;20224;-66
2022/12/19 09:03:32;;;;;;;0.40;0.40;;;7.30;99.90;;;;;;4978491;28;20726;-66
2022/12/19 09:06:19;;;;;;;0.40;0.40;;;7.30;99.90;;;;;;4999322;28;20686;-65
2022/12/19 09:08:46;;;;;;;0.30;0.30;;;7.30;99.90;;;;;;5003048;28;20194;-66
2022/12/19 09:11:15;;;;;;;0.40;0.40;;;7.40;99.90;;;;;;4980454;28;20201;-66
2022/12/19 09:13:43;;;;;;;0.40;0.40;;;7.40;99.90;;;;;;4998980;28;20208;-66
2022/12/19 09:16:19;;;;;;;0.40;0.40;;;7.50;99.90;;;;;;4999842;28;20217;-69
2022/12/19 09:18:49;;;;;;;0.40;0.40;;;7.50;99.90;;;;;;4983055;28;20231;-66
2022/12/19 09:21:18;;;;;;;0.40;0.40;;;7.50;99.90;;;;;;4986008;28;20193;-66
2022/12/19 09:23:50;;;;;;;0.40;0.40;;;7.50;99.90;;;;;;4994419;28;20193;-65
2022/12/19 09:26:18;;;;;;;0.40;0.40;;;7.50;99.90;;;;;;4985021;28;20198;-66
2022/12/19 09:28:46;;;;;;;0.40;0.40;;;7.50;99.90;;;;;;4990199;28;20201;-67
2022/12/19 09:31:16;;;;;;;0.40;0.40;;;7.50;99.90;;;;;;5001579;28;20300;-65
2022/12/19 09:33:44;;;;;;;0.40;0.40;;;7.40;99.90;;;;;;4983927;28;20260;-66
2022/12/19 09:36:14;;;;;;;0.40;0.40;;;7.30;99.90;;;;;;4981209;28;20576;-64
2022/12/19 09:38:42;;;;;;;0.40;0.40;;;7.20;99.90;;;;;;4996752;28;20197;-64
2022/12/19 09:41:46;;;;;;;0.40;0.40;;;7.20;99.90;;;;;;4999225;28;20276;-66
2022/12/19 09:44:51;;;;;;;0.40;0.40;;;7.10;99.90;;;;;;4984399;28;20196;-65
2022/12/19 09:47:27;;;;;;;0.40;0.40;;;7.10;99.90;;;;;;4976060;28;20275;-64
2022/12/19 09:49:56;;;;;;;0.40;0.40;;;7.10;99.90;;;;;;4983195;28;20292;-65
2022/12/19 09:52:23;;;;;;;0.40;0.40;;;7.00;99.90;;;;;;4983195;28;20285;-65
2022/12/19 09:55:18;;;;;;;0.40;0.40;;;7.10;99.90;;;;;;4967323;28;20235;-65
2022/12/19 09:58:02;;;;;;;0.37;0.37;;;7.10;99.90;;;;;;4972453;28;20288;-64
2022/12/19 10:00:38;;;;;;;0.40;0.40;;;7.20;99.90;;;;;;4972169;28;20348;-64
2022/12/19 10:03:17;;;;;;;0.40;0.40;;;7.20;99.90;;;;;;5000044;28;20241;-64
2022/12/19 10:05:48;;;;;;;0.30;0.30;;;7.40;99.90;;;;;;4998505;28;20193;-65
2022/12/19 10:08:37;;;;;;;0.40;0.40;;;7.40;99.90;;;;;;4982905;28;20279;-64
2022/12/19 10:11:47;;;;;;;0.40;0.40;;;7.50;99.90;;;;;;4979164;28;20220;-66
2022/12/19 10:15:07;;;;;;;0.40;0.40;;;7.60;99.90;;;;;;4987636;28;20192;-64
2022/12/19 10:17:46;;;;;;;0.40;0.40;;;7.90;99.90;;;;;;4996686;28;20877;-65
2022/12/19 10:20:28;;;;;;;0.40;0.40;;;7.90;78.30;;;;;;4969888;28;20739;-66
2022/12/19 10:23:11;;;;;;;0.40;0.40;;;8.00;30.00;;;;;;4993635;28;20284;-66
2022/12/19 10:25:40;;;;;;;1.43;1.43;;;8.00;13.90;;;;;;4996649;28;20673;-67
2022/12/19 10:28:18;;;;;;;0.40;0.40;;;8.00;29.70;;;;;;4996859;28;20205;-65
2022/12/19 10:31:02;;;;;;;0.40;0.40;;;8.10;1.00;;;;;;4979464;28;20275;-66
2022/12/19 10:34:17;;;;;;;0.40;0.40;;;8.30;1.00;;;;;;4973689;28;20244;-65
2022/12/19 10:36:49;;;;;;;0.40;0.40;;;8.50;1.00;;;;;;4996384;28;20204;-67
2022/12/19 10:40:04;;;;;;;0.40;0.40;;;8.70;1.00;;;;;;4979375;28;20205;-66
2022/12/19 10:42:57;;;;;;;0.40;0.40;;;8.90;1.00;;;;;;4978807;28;20205;-65
2022/12/19 10:45:48;;;;;;;0.40;0.40;;;9.00;1.00;;;;;;4978375;28;20197;-66
2022/12/19 10:48:19;;;;;;;0.60;0.60;;;9.00;1.00;;;;;;4999095;28;20231;-65
2022/12/19 10:50:57;;;;;;;0.40;0.40;;;9.00;1.00;;;;;;4978798;28;20920;-66
2022/12/19 10:53:30;;;;;;;0.30;0.30;;;9.00;1.00;;;;;;4982050;28;20236;-66
2022/12/19 10:56:11;;;;;;;0.40;0.40;;;8.90;1.00;;;;;;4980207;28;20226;-65
2022/12/19 10:58:42;;;;;;;0.40;0.40;;;8.90;1.00;;;;;;4996314;28;20248;-65
2022/12/19 11:01:21;;;;;;;0.40;0.40;;;8.90;1.00;;;;;;4984725;28;20616;-66
2022/12/19 11:03:55;;;;;;;1.37;1.33;;;8.90;1.00;;;;;;4987152;28;20354;-66
2022/12/19 11:06:33;;;;;;;0.40;0.40;;;9.00;1.00;;;;;;5000410;28;20197;-65
2022/12/19 11:09:17;;;;;;;0.40;0.40;;;9.00;1.00;;;;;;4975069;28;20207;-66
2022/12/19 11:12:15;;;;;;;0.40;0.40;;;8.90;1.00;;;;;;4961311;28;20200;-66
2022/12/19 11:15:08;;;;;;;0.40;0.40;;;8.90;1.00;;;;;;4983201;28;20219;-65
2022/12/19 11:18:07;;;;;;;0.40;0.40;;;8.90;1.00;;;;;;4988313;28;20282;-65
2022/12/19 11:21:03;;;;;;;0.40;0.40;;;8.90;1.00;;;;;;4996666;28;20284;-65
2022/12/19 11:24:02;;;;;;;0.30;0.30;;;8.90;1.00;;;;;;4999333;28;20640;-66
2022/12/19 11:26:51;;;;;;;0.40;0.40;;;9.00;1.00;;;;;;4972292;28;20208;-65
2022/12/19 11:29:48;;;;;;;0.40;0.40;;;9.00;1.00;;;;;;4994887;28;20201;-66
2022/12/19 11:32:40;;;;;;;0.40;0.40;;;9.00;1.00;;;;;;4989054;28;20202;-65
2022/12/19 11:35:21;;;;;;;0.30;0.30;;;9.10;1.00;;;;;;4996168;28;20235;-65
2022/12/19 11:37:58;;;;;;;0.40;0.40;;;9.10;1.00;;;;;;4979187;28;20268;-65
2022/12/19 11:40:38;;;;;;;0.40;0.40;;;9.20;1.00;;;;;;4997758;28;20267;-64
2022/12/19 11:43:33;;;;;;;0.40;0.40;;;9.20;1.00;;;;;;4997051;28;20548;-64
2022/12/19 11:46:21;;;;;;;0.40;0.40;;;9.10;1.00;;;;;;4995879;28;20196;-64
2022/12/19 11:49:00;;;;;;;0.40;0.40;;;9.10;1.00;;;;;;4980930;28;20201;-65
2022/12/19 11:51:49;;;;;;;0.40;0.40;;;9.10;1.00;;;;;;4995683;28;20282;-65
2022/12/19 11:54:50;;;;;;;0.40;0.40;;;9.10;1.00;;;;;;4980969;28;20220;-65
2022/12/19 11:57:18;;;;;;;0.40;0.40;;;9.10;1.00;;;;;;4996520;28;20200;-65
2022/12/19 11:59:45;;;;;;;0.40;0.40;;;9.10;1.00;;;;;;4985289;28;20196;-64
2022/12/19 12:02:21;;;;;;;0.40;0.40;;;9.10;1.00;;;;;;4988781;28;20328;-66
2022/12/19 12:05:06;;;;;;;0.30;0.30;;;9.20;1.00;;;;;;4963581;28;20680;-65
2022/12/19 12:07:38;;;;;;;0.40;0.40;;;9.20;1.00;;;;;;4978578;28;20244;-68
2022/12/19 12:10:29;;;;;;;0.60;0.60;;;9.30;1.00;;;;;;4995097;28;20529;-65
2022/12/19 12:13:34;;;;;;;0.40;0.40;;;9.30;1.00;;;;;;4981680;28;20200;-64
2022/12/19 12:16:29;;;;;;;0.40;0.40;;;9.30;1.00;;;;;;4980707;28;20213;-65
2022/12/19 12:19:49;;;;;;;0.30;0.30;;;9.30;1.00;;;;;;4997146;28;20200;-67
2022/12/19 12:23:05;;;;;;;0.40;0.40;;;9.20;1.00;;;;;;5001887;28;20216;-63
2022/12/19 12:26:00;;;;;;;0.40;0.40;;;9.20;1.00;;;;;;4991249;28;20192;-65
2022/12/19 12:29:00;;;;;;;0.40;0.40;;;9.20;1.00;;;;;;4982372;28;20756;-66
2022/12/19 12:31:56;;;;;;;0.40;0.40;;;9.20;1.00;;;;;;4974506;28;20228;-62
2022/12/19 12:34:49;;;;;;;0.40;0.40;;;9.30;1.00;;;;;;4999556;28;20201;-64
2022/12/19 12:37:54;;;;;;;0.40;0.40;;;9.30;1.00;;;;;;5000990;28;20895;-63
2022/12/19 12:41:12;;;;;;;0.40;0.40;;;9.30;1.00;;;;;;5000203;28;20205;-64
2022/12/19 12:43:45;;;;;;;0.40;0.40;;;9.40;1.00;;;;;;4973694;28;20263;-64
2022/12/19 12:46:31;;;;;;;0.40;0.40;;;9.30;1.00;;;;;;4982326;28;20788;-66
2022/12/19 12:49:04;;;;;;;0.37;0.37;;;9.30;1.00;;;;;;5001201;28;20214;-64
2022/12/19 12:51:33;;;;;;;0.40;0.40;;;9.30;1.00;;;;;;4979340;28;20299;-64
2022/12/19 12:54:13;;;;;;;0.40;0.40;;;9.30;1.00;;;;;;4974313;28;20259;-64
2022/12/19 12:56:41;;;;;;;0.40;0.40;;;9.40;1.00;;;;;;4972039;28;20217;-62
2022/12/19 12:59:21;;;;;;;0.40;0.40;;;9.30;1.00;;;;;;4983770;28;20684;-63
2022/12/19 13:02:13;;;;;;;0.40;0.40;;;9.40;1.00;;;;;;4989660;28;20665;-63
2022/12/19 13:04:53;;;;;;;0.30;0.30;;;9.50;1.00;;;;;;5003006;28;20247;-62
2022/12/19 13:07:42;;;;;;;0.30;0.30;;;9.50;1.00;;;;;;4997466;28;20220;-63
2022/12/19 13:10:12;;;;;;;0.40;0.40;;;9.50;1.00;;;;;;4982222;28;20285;-64
2022/12/19 13:13:01;;;;;;;0.40;0.40;;;9.40;1.00;;;;;;4996545;28;22751;-64
2022/12/19 13:15:28;;;;;;;0.40;0.40;;;9.50;1.00;;;;;;4982869;28;20209;-63
2022/12/19 13:17:55;;;;;;;0.40;0.40;;;9.50;1.00;;;;;;4991037;28;20255;-65
2022/12/19 13:20:28;;;;;;;0.40;0.40;;;9.60;1.00;;;;;;4982202;28;20705;-64
2022/12/19 13:23:02;;;;;;;0.33;0.33;;;9.60;1.00;;;;;;4999808;28;20653;-62
2022/12/19 13:25:29;;;;;;;0.40;0.40;;;9.60;1.00;;;;;;5000844;28;20558;-63
2022/12/19 13:28:01;;;;;;;0.40;0.40;;;9.60;1.00;;;;;;4967079;28;20225;-62
2022/12/19 13:30:30;;;;;;;0.40;0.40;;;9.60;1.00;;;;;;4983184;28;20224;-63
2022/12/19 13:33:00;;;;;;;0.40;0.40;;;9.60;1.00;;;;;;4980965;28;20216;-65
2022/12/19 13:35:27;;;;;;;0.40;0.40;;;9.70;1.00;;;;;;4998908;28;20224;-63
2022/12/19 13:38:22;;;;;;;0.40;0.40;;;9.80;1.00;;;;;;4999986;28;20215;-63
2022/12/19 13:44:20;;;;;;;0.40;0.40;;;9.80;1.00;;;;;;4999688;28;20197;-64
2022/12/19 13:46:48;;;;;;;0.37;0.37;;;9.80;1.00;;;;;;4997630;28;20649;-63